Pagina principale
METAR-TAF:

METAR-TAF

Aeroporti :

Aeroporto di Crotone

Crotone, Italia

latitudine: 39-00N, longitudine: 017-04E, altezza: 155 m

Osservazione

Il bollettino è stato emesso 3 ore e 8 minuti fa, alle 17:50 UTC
Vento 11 kt da sud/sud-ovest
Temperature 25°C
Umidità 69%
Pressione 1011 hPa
Visibilità 10 km o più
nessuna nube inferiore a 1500 m e nessun cumulonembo

METAR: LIBC 221750Z 21011KT CAVOK 25/19 Q1011

Ora: 22:58 (20:58 UTC)

Previsione

Il bollettino è stato emesso 9 ore e 58 minuti fa, alle 11:00 UTC
Previsione valida dal 22 alle 12 UTC al 23 alle 12 UTC
Vento 12 kt da sud/sud-ovest
Visibilità 10 km o più
Poco nuvoloso ad un'altezza di 3000 ft
Evoluzione graduale
dal 22 alle 17 UTC al 22 alle 19 UTC
Vento 5 kt da direzioni variabili
Evoluzione graduale
dal 23 alle 06 UTC al 23 alle 08 UTC
Vento 12 kt da nord

TAF: LIBC 221100Z 2212/2312 20012KT 9999 FEW030 BECMG 2217/2219 VRB05KT BECMG 2306/2308 360012KT

Osservazioni e previsioni meteorologiche di più di 4000 aeroporti (messaggi METAR e TAF).

Le stazioni disponibili sono rappresentate dai dischi gialli e rossi sulla carta.

Puntare il mouse per vedere il nome della stazione.

Clicca sopra per visualizzare le osservazioni e previsioni meteorologiche.

Per cambiare la mappa : fare clic sui pulsanti verdi con una croce nera per ingrandire, il pulsante verde con un trattino per diminuire, o sulla freccia verde per le mappe adiacenti.


METAR-TAF: